createdAt,value
2023-02-15T00:00:01.756Z,3.53
2023-02-15T00:01:05.661Z,4.77
2023-02-15T00:02:02.369Z,4.27
2023-02-15T00:03:01.409Z,3.27
2023-02-15T00:04:02.404Z,4.00
2023-02-15T00:05:01.738Z,5.57
2023-02-15T00:06:02.222Z,5.40
2023-02-15T00:07:01.374Z,4.23
2023-02-15T00:08:01.377Z,6.70
2023-02-15T00:09:02.639Z,5.43
2023-02-15T00:10:01.751Z,5.77
2023-02-15T00:11:06.856Z,5.30
2023-02-15T00:12:01.374Z,4.97
2023-02-15T00:13:01.394Z,6.73
2023-02-15T00:14:01.370Z,8.27
2023-02-15T00:15:01.985Z,7.50
2023-02-15T00:16:03.400Z,10.13
2023-02-15T00:17:01.724Z,9.00
2023-02-15T00:18:01.367Z,6.80
2023-02-15T00:19:02.457Z,7.47
2023-02-15T00:20:01.418Z,7.17
2023-02-15T00:21:05.648Z,5.93
2023-02-15T00:22:01.375Z,7.03
2023-02-15T00:23:01.376Z,9.23
2023-02-15T00:24:03.335Z,8.00
2023-02-15T00:25:01.385Z,6.93
2023-02-15T00:26:05.913Z,5.93
2023-02-15T00:27:01.607Z,6.93
2023-02-15T00:28:01.383Z,5.00
2023-02-15T00:29:01.981Z,6.57
2023-02-15T00:30:01.791Z,6.57
2023-02-15T00:31:03.190Z,7.30
2023-02-15T00:32:01.774Z,6.10
2023-02-15T00:33:01.367Z,6.93
2023-02-15T00:34:02.629Z,8.70
2023-02-15T00:35:01.754Z,9.63
2023-02-15T00:36:03.253Z,7.67
2023-02-15T00:37:01.615Z,6.40
2023-02-15T00:38:01.410Z,8.30
2023-02-15T00:39:01.761Z,6.97
2023-02-15T00:40:01.901Z,7.37
2023-02-15T00:41:04.512Z,5.90
2023-02-15T00:42:01.379Z,6.43
2023-02-15T00:43:01.368Z,6.77
2023-02-15T00:44:01.986Z,7.77
2023-02-15T00:45:01.414Z,8.50
2023-02-15T00:46:02.291Z,14.07
2023-02-15T00:47:01.393Z,14.53
2023-02-15T00:48:02.094Z,14.57
2023-02-15T00:49:02.286Z,11.97
2023-02-15T00:50:01.416Z,10.93
2023-02-15T00:51:01.933Z,11.17
2023-02-15T00:52:01.450Z,10.80
2023-02-15T00:53:01.719Z,12.97
2023-02-15T00:54:01.381Z,13.40
2023-02-15T00:55:01.715Z,18.87
2023-02-15T00:56:02.056Z,10.90
2023-02-15T00:57:01.431Z,7.30
2023-02-15T00:58:01.704Z,10.83
2023-02-15T00:59:01.884Z,7.00
2023-02-15T01:00:01.423Z,9.53
2023-02-15T01:01:05.400Z,7.10
2023-02-15T01:02:01.374Z,7.70
2023-02-15T01:03:02.191Z,6.97
2023-02-15T01:04:02.613Z,8.33
2023-02-15T01:05:01.729Z,8.13
2023-02-15T01:06:02.950Z,9.90
2023-02-15T01:07:01.386Z,13.30
2023-02-15T01:08:01.811Z,10.93
2023-02-15T01:09:01.406Z,13.30
2023-02-15T01:10:02.214Z,12.00
2023-02-15T01:11:04.947Z,15.73
2023-02-15T01:12:01.715Z,15.80
2023-02-15T01:13:02.581Z,13.83
2023-02-15T01:14:01.374Z,13.07
2023-02-15T01:15:01.727Z,11.83
2023-02-15T01:16:02.919Z,13.80
2023-02-15T01:17:01.714Z,14.03
2023-02-15T01:18:02.014Z,14.33
2023-02-15T01:19:01.400Z,15.23
2023-02-15T01:20:02.105Z,17.97
2023-02-15T01:21:09.041Z,16.70
2023-02-15T01:22:01.730Z,16.10
2023-02-15T01:23:01.732Z,17.67
2023-02-15T01:24:01.433Z,17.63
2023-02-15T01:25:01.925Z,20.03
2023-02-15T01:26:02.920Z,18.17
2023-02-15T01:27:01.740Z,16.53
2023-02-15T01:28:02.654Z,19.37
2023-02-15T01:29:01.388Z,16.80
2023-02-15T01:30:01.830Z,17.27
2023-02-15T01:31:05.029Z,19.13
2023-02-15T01:32:02.163Z,17.87
2023-02-15T01:33:01.770Z,16.00
2023-02-15T01:34:02.052Z,15.33
2023-02-15T01:35:02.060Z,17.63
2023-02-15T01:36:02.986Z,20.07
2023-02-15T01:37:02.212Z,18.37
2023-02-15T01:38:01.390Z,18.63
2023-02-15T01:39:02.440Z,19.37
2023-02-15T01:40:02.780Z,17.77
2023-02-15T01:41:01.785Z,18.57
2023-02-15T01:42:01.716Z,17.13
2023-02-15T01:43:01.527Z,17.10
2023-02-15T01:44:03.759Z,16.47
2023-02-15T01:45:03.914Z,17.40
2023-02-15T01:46:01.860Z,19.27
2023-02-15T01:47:01.779Z,20.83
2023-02-15T01:48:04.933Z,18.90
2023-02-15T01:49:05.225Z,19.83
2023-02-15T01:50:10.135Z,19.97
2023-02-15T01:51:02.772Z,17.67
2023-02-15T01:52:02.060Z,15.93
2023-02-15T01:53:08.927Z,18.47
2023-02-15T01:54:06.625Z,18.07
2023-02-15T01:55:01.825Z,17.17
2023-02-15T01:56:06.882Z,17.57
2023-02-15T01:57:05.224Z,14.33
2023-02-15T01:58:01.541Z,11.50
2023-02-15T01:59:06.844Z,12.27
2023-02-15T02:00:04.534Z,10.90
2023-02-15T02:01:04.410Z,11.20
2023-02-15T02:02:05.419Z,12.97
2023-02-15T02:03:03.791Z,11.10
2023-02-15T02:04:09.372Z,9.47
2023-02-15T02:05:05.231Z,8.37
2023-02-15T02:06:02.028Z,11.40
2023-02-15T02:07:02.500Z,9.60
2023-02-15T02:08:03.162Z,9.80
2023-02-15T02:09:02.782Z,9.47
2023-02-15T02:10:03.399Z,9.93
2023-02-15T02:11:01.372Z,10.30
2023-02-15T02:12:01.809Z,11.60
2023-02-15T02:13:05.106Z,8.87
2023-02-15T02:14:01.873Z,9.00
2023-02-15T02:15:01.981Z,8.60
2023-02-15T02:16:10.282Z,10.90
2023-02-15T02:17:12.056Z,8.83
2023-02-15T02:18:18.338Z,10.37
2023-02-15T02:19:17.430Z,9.67
2023-02-15T02:20:17.740Z,11.53
2023-02-15T02:21:20.806Z,20.47
2023-02-15T02:22:20.818Z,10.57
2023-02-15T02:23:16.077Z,7.67
2023-02-15T02:24:20.782Z,12.23
2023-02-15T02:25:20.813Z,13.03
2023-02-15T02:26:20.787Z,9.80
2023-02-15T02:27:20.795Z,7.13
2023-02-15T02:28:20.773Z,10.23
2023-02-15T02:29:20.782Z,7.30
2023-02-15T02:30:20.939Z,9.13
2023-02-15T02:31:21.005Z,9.47
2023-02-15T02:32:20.778Z,9.97
2023-02-15T02:33:19.047Z,10.10
2023-02-15T02:34:08.531Z,8.80
2023-02-15T02:35:09.791Z,10.53
2023-02-15T02:36:12.402Z,11.17
2023-02-15T02:37:13.957Z,10.27
2023-02-15T02:38:08.503Z,7.33
2023-02-15T02:39:14.123Z,12.00
2023-02-15T02:40:12.534Z,12.07
2023-02-15T02:41:15.685Z,9.27
2023-02-15T02:42:06.591Z,8.13
2023-02-15T02:43:10.719Z,9.37
2023-02-15T02:44:08.328Z,10.13
2023-02-15T02:45:06.952Z,8.20
2023-02-15T02:46:09.294Z,8.03
2023-02-15T02:47:09.399Z,11.60
2023-02-15T02:48:08.278Z,10.83
2023-02-15T02:49:02.619Z,8.30
2023-02-15T02:50:05.508Z,9.30
2023-02-15T02:51:01.398Z,10.40
2023-02-15T02:52:03.387Z,10.47
2023-02-15T02:53:01.400Z,11.17
2023-02-15T02:54:06.850Z,10.40
2023-02-15T02:55:05.445Z,9.97
2023-02-15T02:56:10.487Z,10.70
2023-02-15T02:57:04.146Z,10.77
2023-02-15T02:58:06.717Z,10.13
2023-02-15T02:59:07.898Z,14.67
2023-02-15T03:00:04.766Z,14.60
2023-02-15T03:01:07.432Z,13.07
2023-02-15T03:02:09.556Z,11.70
2023-02-15T03:03:08.858Z,12.57
2023-02-15T03:04:06.163Z,11.57
2023-02-15T03:05:06.930Z,8.93
2023-02-15T03:06:06.369Z,9.57
2023-02-15T03:07:05.028Z,10.73
2023-02-15T03:08:04.564Z,8.97
2023-02-15T03:09:09.980Z,9.20
2023-02-15T03:10:05.394Z,10.57
2023-02-15T03:11:04.383Z,8.73
2023-02-15T03:12:02.767Z,8.53
2023-02-15T03:13:02.469Z,7.73
2023-02-15T03:14:01.926Z,10.27
2023-02-15T03:15:05.138Z,9.30
2023-02-15T03:16:04.139Z,10.67
2023-02-15T03:17:03.475Z,8.63
2023-02-15T03:18:03.225Z,8.13
2023-02-15T03:19:06.412Z,9.57
2023-02-15T03:20:07.202Z,9.07
2023-02-15T03:21:04.859Z,9.20
2023-02-15T03:22:06.419Z,10.00
2023-02-15T03:23:05.792Z,8.70
2023-02-15T03:24:06.986Z,8.57
2023-02-15T03:25:07.603Z,8.20
2023-02-15T03:26:05.988Z,9.73
2023-02-15T03:27:07.427Z,9.23
2023-02-15T03:28:06.483Z,9.00
2023-02-15T03:29:05.691Z,9.57
2023-02-15T03:30:04.230Z,11.17
2023-02-15T03:31:05.852Z,14.53
2023-02-15T03:32:07.269Z,11.17
2023-02-15T03:33:04.762Z,10.87
2023-02-15T03:34:06.798Z,11.87
2023-02-15T03:35:02.447Z,12.43
2023-02-15T03:36:09.117Z,10.47
2023-02-15T03:37:10.928Z,11.10
2023-02-15T03:38:06.857Z,10.77
2023-02-15T03:39:09.957Z,11.00
2023-02-15T03:40:08.114Z,11.90
2023-02-15T03:41:03.410Z,9.57
2023-02-15T03:42:10.531Z,11.90
2023-02-15T03:43:09.340Z,13.57
2023-02-15T03:44:07.062Z,15.13
2023-02-15T03:45:05.912Z,13.23
2023-02-15T03:46:11.447Z,13.43
2023-02-15T03:47:06.289Z,13.97
2023-02-15T03:48:03.964Z,14.93
2023-02-15T03:49:07.604Z,14.43
2023-02-15T03:50:06.109Z,11.87
2023-02-15T03:51:07.853Z,11.00
2023-02-15T03:52:04.131Z,12.50
2023-02-15T03:53:06.324Z,11.67
2023-02-15T03:54:02.763Z,11.83
2023-02-15T03:55:02.329Z,13.07
2023-02-15T03:56:01.819Z,10.73
2023-02-15T03:57:02.354Z,13.17
2023-02-15T03:58:02.065Z,11.43
2023-02-15T03:59:01.773Z,11.00
2023-02-15T04:00:04.338Z,11.70
2023-02-15T04:01:11.243Z,13.03
2023-02-15T04:02:17.057Z,15.07
2023-02-15T04:03:11.224Z,11.90
2023-02-15T04:04:09.517Z,13.23
2023-02-15T04:05:01.395Z,11.97
2023-02-15T04:06:03.480Z,11.77
2023-02-15T04:07:02.098Z,14.73
2023-02-15T04:08:01.846Z,13.73
2023-02-15T04:09:01.762Z,13.20
2023-02-15T04:10:01.391Z,15.33
2023-02-15T04:11:01.391Z,13.07
2023-02-15T04:12:01.383Z,14.23
2023-02-15T04:13:01.406Z,14.73
2023-02-15T04:14:01.749Z,11.63
2023-02-15T04:15:01.409Z,12.83
2023-02-15T04:16:01.843Z,12.20
2023-02-15T04:17:06.053Z,11.50
2023-02-15T04:18:03.169Z,11.20
2023-02-15T04:19:01.740Z,13.17
2023-02-15T04:20:01.717Z,10.70
2023-02-15T04:21:01.395Z,15.10
2023-02-15T04:22:01.442Z,11.57
2023-02-15T04:23:05.528Z,11.07
2023-02-15T04:24:01.751Z,13.13
2023-02-15T04:25:01.403Z,12.07
2023-02-15T04:26:03.764Z,12.77
2023-02-15T04:27:03.193Z,12.90
2023-02-15T04:28:01.763Z,11.63
2023-02-15T04:29:01.393Z,15.63
2023-02-15T04:30:02.243Z,11.63
2023-02-15T04:31:01.417Z,12.67
2023-02-15T04:32:02.227Z,11.43
2023-02-15T04:33:01.401Z,12.97
2023-02-15T04:34:01.717Z,10.47
2023-02-15T04:35:02.517Z,12.73
2023-02-15T04:36:01.759Z,11.90
2023-02-15T04:37:01.362Z,12.80
2023-02-15T04:38:01.379Z,12.07
2023-02-15T04:39:02.139Z,12.17
2023-02-15T04:40:01.835Z,12.40
2023-02-15T04:41:01.377Z,13.87
2023-02-15T04:42:01.369Z,12.00
2023-02-15T04:43:01.357Z,15.03
2023-02-15T04:44:01.888Z,16.83
2023-02-15T04:45:02.089Z,15.83
2023-02-15T04:46:01.735Z,16.23
2023-02-15T04:47:01.747Z,17.37
2023-02-15T04:48:01.378Z,16.47
2023-02-15T04:49:01.662Z,14.40
2023-02-15T04:50:02.184Z,13.60
2023-02-15T04:51:06.028Z,13.37
2023-02-15T04:52:01.769Z,17.50
2023-02-15T04:53:01.408Z,15.63
2023-02-15T04:54:01.416Z,12.20
2023-02-15T04:55:01.365Z,14.20
2023-02-15T04:56:01.992Z,12.80
2023-02-15T04:57:01.465Z,16.10
2023-02-15T04:58:01.389Z,12.33
2023-02-15T04:59:01.367Z,14.80
2023-02-15T05:00:01.772Z,13.20
2023-02-15T05:01:02.084Z,15.67
2023-02-15T05:02:02.032Z,14.73
2023-02-15T05:03:01.775Z,12.40
2023-02-15T05:04:01.779Z,15.57
2023-02-15T05:05:01.358Z,13.40
2023-02-15T05:06:02.477Z,12.53
2023-02-15T05:07:01.763Z,11.23
2023-02-15T05:08:01.369Z,12.20
2023-02-15T05:09:02.231Z,14.40
2023-02-15T05:10:01.373Z,13.63
2023-02-15T05:11:01.730Z,13.40
2023-02-15T05:12:01.643Z,12.50
2023-02-15T05:13:01.728Z,14.40
2023-02-15T05:14:01.378Z,15.43
2023-02-15T05:15:01.898Z,15.67
2023-02-15T05:16:01.655Z,12.47
2023-02-15T05:17:01.749Z,13.67
2023-02-15T05:18:01.739Z,14.63
2023-02-15T05:19:01.543Z,14.70
2023-02-15T05:20:01.771Z,16.70
2023-02-15T05:21:01.428Z,13.20
2023-02-15T05:22:01.423Z,14.23
2023-02-15T05:23:01.933Z,15.13
2023-02-15T05:24:01.758Z,14.00
2023-02-15T05:25:01.744Z,13.47
2023-02-15T05:26:02.096Z,15.33
2023-02-15T05:27:01.788Z,14.43
2023-02-15T05:28:01.946Z,15.50
2023-02-15T05:29:01.388Z,15.63
2023-02-15T05:30:01.605Z,15.23
2023-02-15T05:31:07.644Z,15.90
2023-02-15T05:32:01.926Z,13.93
2023-02-15T05:33:01.776Z,15.87
2023-02-15T05:34:02.728Z,12.63
2023-02-15T05:35:01.371Z,14.43
2023-02-15T05:36:02.702Z,13.00
2023-02-15T05:37:01.390Z,14.20
2023-02-15T05:38:01.394Z,13.63
2023-02-15T05:39:01.446Z,12.80
2023-02-15T05:40:01.417Z,14.10
2023-02-15T05:41:01.746Z,14.40
2023-02-15T05:42:01.807Z,13.27
2023-02-15T05:43:01.759Z,12.20
2023-02-15T05:44:01.385Z,15.60
2023-02-15T05:45:01.828Z,14.40
2023-02-15T05:46:03.015Z,11.63
2023-02-15T05:47:01.747Z,13.53
2023-02-15T05:48:01.403Z,12.80
2023-02-15T05:49:01.729Z,13.77
2023-02-15T05:50:01.901Z,12.57
2023-02-15T05:51:04.819Z,10.77
2023-02-15T05:52:01.587Z,13.23
2023-02-15T05:53:01.719Z,14.47
2023-02-15T05:54:01.394Z,13.50
2023-02-15T05:55:01.727Z,14.40
2023-02-15T05:56:03.436Z,14.07
2023-02-15T05:57:01.769Z,11.93
2023-02-15T05:58:01.750Z,13.83
2023-02-15T05:59:01.748Z,14.30
2023-02-15T06:00:01.752Z,12.70
2023-02-15T06:01:07.910Z,13.37
2023-02-15T06:02:01.820Z,14.33
2023-02-15T06:03:01.721Z,14.97
2023-02-15T06:04:01.750Z,12.53
2023-02-15T06:05:01.739Z,14.53
2023-02-15T06:06:01.740Z,12.87
2023-02-15T06:07:02.083Z,14.53
2023-02-15T06:08:01.384Z,11.97
2023-02-15T06:09:02.201Z,14.63
2023-02-15T06:10:01.549Z,14.77
2023-02-15T06:11:01.753Z,14.13
2023-02-15T06:12:01.446Z,12.30
2023-02-15T06:13:01.388Z,12.50
2023-02-15T06:14:01.394Z,12.60
2023-02-15T06:15:01.751Z,13.17
2023-02-15T06:16:01.704Z,12.17
2023-02-15T06:17:01.734Z,12.20
2023-02-15T06:18:01.716Z,12.03
2023-02-15T06:19:01.787Z,14.00
2023-02-15T06:20:01.425Z,14.37
2023-02-15T06:21:01.828Z,14.80
2023-02-15T06:22:02.048Z,14.13
2023-02-15T06:23:01.750Z,12.60
2023-02-15T06:24:01.754Z,11.90
2023-02-15T06:25:02.004Z,12.00
2023-02-15T06:26:01.654Z,13.33
2023-02-15T06:27:01.481Z,12.03
2023-02-15T06:28:01.380Z,14.33
2023-02-15T06:29:01.713Z,12.00
2023-02-15T06:30:02.027Z,12.10
2023-02-15T06:31:01.484Z,16.97
2023-02-15T06:32:01.837Z,13.50
2023-02-15T06:33:01.404Z,16.70
2023-02-15T06:34:01.407Z,13.60
2023-02-15T06:35:02.088Z,13.50
2023-02-15T06:36:02.397Z,15.03
2023-02-15T06:37:01.403Z,14.87
2023-02-15T06:38:01.771Z,14.57
2023-02-15T06:39:01.747Z,13.73
2023-02-15T06:40:03.930Z,14.57
2023-02-15T06:41:01.726Z,14.50
2023-02-15T06:42:01.721Z,14.40
2023-02-15T06:43:01.381Z,15.37
2023-02-15T06:44:01.401Z,12.67
2023-02-15T06:45:01.414Z,13.67
2023-02-15T06:46:02.271Z,15.50
2023-02-15T06:47:01.718Z,14.53
2023-02-15T06:48:01.430Z,15.60
2023-02-15T06:49:01.366Z,15.43
2023-02-15T06:50:01.393Z,15.07
2023-02-15T06:51:02.000Z,13.43
2023-02-15T06:52:01.761Z,14.63
2023-02-15T06:53:01.739Z,14.93
2023-02-15T06:54:01.773Z,16.67
2023-02-15T06:55:01.413Z,15.60
2023-02-15T06:56:02.624Z,16.23
2023-02-15T06:57:01.746Z,15.43
2023-02-15T06:58:01.798Z,14.70
2023-02-15T06:59:01.799Z,14.53
2023-02-15T07:00:01.532Z,14.53
2023-02-15T07:01:01.851Z,15.47
2023-02-15T07:02:01.935Z,15.53
2023-02-15T07:03:01.382Z,16.33
2023-02-15T07:04:01.381Z,15.43
2023-02-15T07:05:01.433Z,17.60
2023-02-15T07:06:04.183Z,16.80
2023-02-15T07:07:01.827Z,16.87
2023-02-15T07:08:02.197Z,14.30
2023-02-15T07:09:02.139Z,15.43
2023-02-15T07:10:01.909Z,17.33
2023-02-15T07:11:02.062Z,15.67
2023-02-15T07:12:01.378Z,14.40
2023-02-15T07:13:02.104Z,14.93
2023-02-15T07:14:01.376Z,17.30
2023-02-15T07:15:01.472Z,14.73
2023-02-15T07:16:01.758Z,16.07
2023-02-15T07:17:01.394Z,17.93
2023-02-15T07:18:01.360Z,15.73
2023-02-15T07:19:02.011Z,16.37
2023-02-15T07:20:01.730Z,17.30
2023-02-15T07:21:01.832Z,16.20
2023-02-15T07:22:01.386Z,14.67
2023-02-15T07:23:02.064Z,15.43
2023-02-15T07:24:01.900Z,13.90
2023-02-15T07:25:01.857Z,15.73
2023-02-15T07:26:02.249Z,15.03
2023-02-15T07:27:01.850Z,14.60
2023-02-15T07:28:03.962Z,15.77
2023-02-15T07:29:01.718Z,15.80
2023-02-15T07:30:02.771Z,15.27
2023-02-15T07:31:01.823Z,15.90
2023-02-15T07:32:01.828Z,16.77
2023-02-15T07:33:04.608Z,16.90
2023-02-15T07:34:01.377Z,13.87
2023-02-15T07:35:01.858Z,17.30
2023-02-15T07:36:04.361Z,16.00
2023-02-15T07:37:01.705Z,14.40
2023-02-15T07:38:01.859Z,17.00
2023-02-15T07:39:01.389Z,17.70
2023-02-15T07:40:01.738Z,17.43
2023-02-15T07:41:03.688Z,17.50
2023-02-15T07:42:01.389Z,16.73
2023-02-15T07:43:01.706Z,15.63
2023-02-15T07:44:01.736Z,16.27
2023-02-15T07:45:01.699Z,15.67
2023-02-15T07:46:04.610Z,16.87
2023-02-15T07:47:01.377Z,18.63
2023-02-15T07:48:02.250Z,16.13
2023-02-15T07:49:01.367Z,16.33
2023-02-15T07:50:01.363Z,14.93
2023-02-15T07:51:02.830Z,15.47
2023-02-15T07:52:01.863Z,16.77
2023-02-15T07:53:02.606Z,16.50
2023-02-15T07:54:01.698Z,17.77
2023-02-15T07:55:01.388Z,16.87
2023-02-15T07:56:03.838Z,15.67
2023-02-15T07:57:02.054Z,16.43
2023-02-15T07:58:01.843Z,16.97
2023-02-15T07:59:01.377Z,14.70
2023-02-15T08:00:01.671Z,15.33
2023-02-15T08:01:01.712Z,16.50
2023-02-15T08:02:01.743Z,16.17
2023-02-15T08:03:01.577Z,14.60
2023-02-15T08:04:03.467Z,15.70
2023-02-15T08:05:01.397Z,14.47
2023-02-15T08:06:01.990Z,16.60
2023-02-15T08:07:01.355Z,16.93
2023-02-15T08:08:01.976Z,17.10
2023-02-15T08:09:03.794Z,13.57
2023-02-15T08:10:01.405Z,16.17
2023-02-15T08:11:03.542Z,16.23
2023-02-15T08:12:01.361Z,15.83
2023-02-15T08:13:01.741Z,14.93
2023-02-15T08:14:03.901Z,16.27
2023-02-15T08:15:01.381Z,14.70
2023-02-15T08:16:01.730Z,17.40
2023-02-15T08:17:01.380Z,17.03
2023-02-15T08:18:01.366Z,15.90
2023-02-15T08:19:03.833Z,16.17
2023-02-15T08:20:01.382Z,16.00
2023-02-15T08:21:02.248Z,15.73
2023-02-15T08:22:03.735Z,15.40
2023-02-15T08:23:01.361Z,17.23
2023-02-15T08:24:02.355Z,16.80
2023-02-15T08:25:01.378Z,15.63
2023-02-15T08:26:01.766Z,15.17
2023-02-15T08:27:01.580Z,16.27
2023-02-15T08:28:01.725Z,16.77
2023-02-15T08:29:02.872Z,17.27
2023-02-15T08:30:01.765Z,16.70
2023-02-15T08:31:05.429Z,14.70
2023-02-15T08:32:04.410Z,16.50
2023-02-15T08:33:01.369Z,17.50
2023-02-15T08:34:01.508Z,17.13
2023-02-15T08:35:01.722Z,16.87
2023-02-15T08:36:04.425Z,16.70
2023-02-15T08:37:01.803Z,17.20
2023-02-15T08:38:01.417Z,15.97
2023-02-15T08:39:04.290Z,13.20
2023-02-15T08:40:01.729Z,15.80
2023-02-15T08:41:10.789Z,15.83
2023-02-15T08:42:01.511Z,16.07
2023-02-15T08:43:01.719Z,15.53
2023-02-15T08:44:04.145Z,16.70
2023-02-15T08:45:01.382Z,17.40
2023-02-15T08:46:01.473Z,14.53
2023-02-15T08:47:01.732Z,16.03
2023-02-15T08:48:01.709Z,15.93
2023-02-15T08:49:02.275Z,15.00
2023-02-15T08:50:01.799Z,14.47
2023-02-15T08:51:04.830Z,16.40
2023-02-15T08:52:01.738Z,16.43
2023-02-15T08:53:01.711Z,14.77
2023-02-15T08:54:03.893Z,16.00
2023-02-15T08:55:01.387Z,18.73
2023-02-15T08:56:01.561Z,16.23
2023-02-15T08:57:01.369Z,16.63
2023-02-15T08:58:01.718Z,14.00
2023-02-15T08:59:03.004Z,15.83
2023-02-15T09:00:02.147Z,18.90
2023-02-15T09:01:08.045Z,13.93
2023-02-15T09:02:01.613Z,14.77
2023-02-15T09:03:01.517Z,16.83
2023-02-15T09:04:03.543Z,17.90
2023-02-15T09:05:01.393Z,17.67
2023-02-15T09:06:02.237Z,15.73
2023-02-15T09:07:01.448Z,17.80
2023-02-15T09:08:01.374Z,16.33
2023-02-15T09:09:02.190Z,14.70
2023-02-15T09:10:01.802Z,14.80
2023-02-15T09:11:07.118Z,16.70
2023-02-15T09:12:02.330Z,16.60
2023-02-15T09:13:01.714Z,19.17
2023-02-15T09:14:03.853Z,15.67
2023-02-15T09:15:01.456Z,16.03
2023-02-15T09:16:02.825Z,15.50
2023-02-15T09:17:01.387Z,16.60
2023-02-15T09:18:01.401Z,13.70
2023-02-15T09:19:02.359Z,15.80
2023-02-15T09:20:01.929Z,15.63
2023-02-15T09:21:05.231Z,22.93
2023-02-15T09:22:01.394Z,38.83
2023-02-15T09:23:01.368Z,30.37
2023-02-15T09:24:03.041Z,23.90
2023-02-15T09:25:01.764Z,20.83
2023-02-15T09:26:05.008Z,16.13
2023-02-15T09:27:01.717Z,16.97
2023-02-15T09:28:01.723Z,16.60
2023-02-15T09:29:02.934Z,15.77
2023-02-15T09:30:01.479Z,17.40
2023-02-15T09:31:05.914Z,15.70
2023-02-15T09:32:01.829Z,16.23
2023-02-15T09:33:01.716Z,16.53
2023-02-15T09:34:01.429Z,15.37
2023-02-15T09:35:01.369Z,16.80
2023-02-15T09:36:01.603Z,15.57
2023-02-15T09:37:01.388Z,13.37
2023-02-15T09:38:01.382Z,16.07
2023-02-15T09:39:07.012Z,15.30
2023-02-15T09:40:01.384Z,12.00
2023-02-15T09:41:14.816Z,15.53
2023-02-15T09:42:20.774Z,15.17
2023-02-15T09:43:16.512Z,14.13
2023-02-15T09:44:13.486Z,14.20
2023-02-15T09:45:14.049Z,17.33
2023-02-15T09:46:18.582Z,17.13
2023-02-15T09:47:20.357Z,16.07
2023-02-15T09:48:12.659Z,15.43
2023-02-15T09:49:10.715Z,15.93
2023-02-15T09:50:12.431Z,14.40
2023-02-15T09:51:20.780Z,17.00
2023-02-15T09:52:20.250Z,15.87
2023-02-15T09:53:13.436Z,16.50
2023-02-15T09:54:17.112Z,16.50
2023-02-15T09:55:14.907Z,16.43
2023-02-15T09:56:09.619Z,16.30
2023-02-15T09:57:11.945Z,16.27
2023-02-15T09:58:11.532Z,17.03
2023-02-15T09:59:11.975Z,15.63
2023-02-15T10:00:13.193Z,17.37
2023-02-15T10:01:08.338Z,16.23
2023-02-15T10:02:15.562Z,17.13
2023-02-15T10:03:18.717Z,14.60
2023-02-15T10:04:20.192Z,16.07
2023-02-15T10:05:18.292Z,14.77
2023-02-15T10:06:20.787Z,17.57
2023-02-15T10:07:15.626Z,13.00
2023-02-15T10:08:19.764Z,16.70
2023-02-15T10:09:20.784Z,14.80
2023-02-15T10:10:14.619Z,15.80
2023-02-15T10:11:14.633Z,13.40
2023-02-15T10:12:15.439Z,14.63
2023-02-15T10:13:20.798Z,18.47
2023-02-15T10:14:20.785Z,17.17
2023-02-15T10:15:17.391Z,18.60
2023-02-15T10:16:18.696Z,15.73
2023-02-15T10:17:11.812Z,14.97
2023-02-15T10:18:15.033Z,16.10
2023-02-15T10:19:11.263Z,16.67
2023-02-15T10:20:17.204Z,17.33
2023-02-15T10:21:09.844Z,17.20
2023-02-15T10:22:14.608Z,16.67
2023-02-15T10:23:20.031Z,15.77
2023-02-15T10:24:20.824Z,14.60
2023-02-15T10:25:15.580Z,13.77
2023-02-15T10:26:08.359Z,16.77
2023-02-15T10:27:11.445Z,16.47
2023-02-15T10:28:06.151Z,17.27
2023-02-15T10:29:07.985Z,16.67
2023-02-15T10:30:10.024Z,18.50
2023-02-15T10:31:12.029Z,14.20
2023-02-15T10:32:14.376Z,16.50
2023-02-15T10:33:04.036Z,15.53
2023-02-15T10:34:12.692Z,16.17
2023-02-15T10:35:10.735Z,14.23
2023-02-15T10:36:12.120Z,13.80
2023-02-15T10:37:19.496Z,15.37
2023-02-15T10:38:16.169Z,16.00
2023-02-15T10:39:10.023Z,15.20
2023-02-15T10:40:11.639Z,13.27
2023-02-15T10:41:09.929Z,16.57
2023-02-15T10:42:11.397Z,15.93
2023-02-15T10:43:14.505Z,17.77
2023-02-15T10:44:19.875Z,14.33
2023-02-15T10:45:13.506Z,14.07
2023-02-15T10:46:14.148Z,15.33
2023-02-15T10:47:20.667Z,17.13
2023-02-15T10:48:18.195Z,14.37
2023-02-15T10:49:20.778Z,13.30
2023-02-15T10:50:17.186Z,17.97
2023-02-15T10:51:03.858Z,16.40
2023-02-15T10:52:19.555Z,14.77
2023-02-15T10:53:17.505Z,21.37
2023-02-15T10:54:14.217Z,18.17
2023-02-15T10:55:12.143Z,19.03
2023-02-15T10:56:13.122Z,15.67
2023-02-15T10:57:06.557Z,18.43
2023-02-15T10:58:08.102Z,20.93
2023-02-15T10:59:17.628Z,19.87
2023-02-15T11:00:10.120Z,20.33
2023-02-15T11:01:15.007Z,19.10
2023-02-15T11:02:12.658Z,16.90
2023-02-15T11:03:20.784Z,17.93
2023-02-15T11:04:20.778Z,17.13
2023-02-15T11:05:20.613Z,18.13
2023-02-15T11:06:07.137Z,17.27
2023-02-15T11:07:06.669Z,14.27
2023-02-15T11:08:06.839Z,19.33
2023-02-15T11:09:05.038Z,14.50
2023-02-15T11:10:07.836Z,16.50
2023-02-15T11:11:06.695Z,14.40
2023-02-15T11:12:01.712Z,18.67
2023-02-15T11:13:08.813Z,17.23
2023-02-15T11:14:05.651Z,19.87
2023-02-15T11:15:11.379Z,21.97
2023-02-15T11:16:06.678Z,20.63
2023-02-15T11:17:08.826Z,16.07
2023-02-15T11:18:10.030Z,16.00
2023-02-15T11:19:06.459Z,17.03
2023-02-15T11:20:14.602Z,17.83
2023-02-15T11:21:05.011Z,17.80
2023-02-15T11:22:04.813Z,15.67
2023-02-15T11:23:02.808Z,16.03
2023-02-15T11:24:09.994Z,17.60
2023-02-15T11:25:12.168Z,19.07
2023-02-15T11:26:04.930Z,15.10
2023-02-15T11:27:05.857Z,16.93
2023-02-15T11:28:10.489Z,16.23
2023-02-15T11:29:10.588Z,18.00
2023-02-15T11:30:04.557Z,14.13
2023-02-15T11:31:13.589Z,15.77
2023-02-15T11:32:04.627Z,17.07
2023-02-15T11:33:07.138Z,14.97
2023-02-15T11:34:12.350Z,16.03
2023-02-15T11:35:11.140Z,15.20
2023-02-15T11:36:05.811Z,17.97
2023-02-15T11:37:07.344Z,16.00
2023-02-15T11:38:12.210Z,15.43
2023-02-15T11:39:08.135Z,15.33
2023-02-15T11:40:02.669Z,14.90
2023-02-15T11:41:06.089Z,16.13
2023-02-15T11:42:09.256Z,16.37
2023-02-15T11:43:07.339Z,14.93
2023-02-15T11:44:12.283Z,18.97
2023-02-15T11:45:07.572Z,19.40
2023-02-15T11:46:02.141Z,31.50
2023-02-15T11:47:02.088Z,20.70
2023-02-15T11:48:10.636Z,14.70
2023-02-15T11:49:01.478Z,19.53
2023-02-15T11:50:01.467Z,15.50
2023-02-15T11:51:03.275Z,14.67
2023-02-15T11:52:05.194Z,18.00
2023-02-15T11:53:04.498Z,17.77
2023-02-15T11:54:04.131Z,19.27
2023-02-15T11:55:01.543Z,19.30
2023-02-15T11:56:02.138Z,15.17
2023-02-15T11:57:12.452Z,19.10
2023-02-15T11:58:09.979Z,14.43
2023-02-15T11:59:09.320Z,16.60
2023-02-15T12:00:10.728Z,15.80
2023-02-15T12:01:09.624Z,15.80
2023-02-15T12:02:01.376Z,19.30
2023-02-15T12:03:08.094Z,17.83
2023-02-15T12:04:07.340Z,14.17
2023-02-15T12:05:06.806Z,14.37
2023-02-15T12:06:04.355Z,18.00
2023-02-15T12:07:09.758Z,15.20
2023-02-15T12:08:09.762Z,17.00
2023-02-15T12:09:06.620Z,17.10
2023-02-15T12:10:05.887Z,15.83
2023-02-15T12:11:08.283Z,17.13
2023-02-15T12:12:20.814Z,15.33
2023-02-15T12:13:11.346Z,16.97
2023-02-15T12:14:04.088Z,17.50
2023-02-15T12:15:04.250Z,17.47
2023-02-15T12:16:11.885Z,15.10
2023-02-15T12:17:01.818Z,15.00
2023-02-15T12:18:02.034Z,16.63
2023-02-15T12:19:03.072Z,19.17
2023-02-15T12:20:07.431Z,17.50
2023-02-15T12:21:05.980Z,18.47
2023-02-15T12:22:04.010Z,16.70
2023-02-15T12:23:05.680Z,23.50
2023-02-15T12:24:10.522Z,26.53
2023-02-15T12:25:13.426Z,22.40
2023-02-15T12:26:02.530Z,21.53
2023-02-15T12:27:05.489Z,14.73
2023-02-15T12:28:02.407Z,15.97
2023-02-15T12:29:12.583Z,18.20
2023-02-15T12:30:07.326Z,17.53
2023-02-15T12:31:07.256Z,16.87
2023-02-15T12:32:03.562Z,16.43
2023-02-15T12:33:14.098Z,17.43
2023-02-15T12:34:09.780Z,15.10
2023-02-15T12:35:09.767Z,16.77
2023-02-15T12:36:09.761Z,14.83
2023-02-15T12:37:09.531Z,16.80
2023-02-15T12:38:13.361Z,15.20
2023-02-15T12:39:14.429Z,15.67
2023-02-15T12:40:12.853Z,16.60
2023-02-15T12:41:04.886Z,20.77
2023-02-15T12:42:05.034Z,18.50
2023-02-15T12:44:14.312Z,17.63
2023-02-15T12:45:03.662Z,18.50
2023-02-15T12:46:20.342Z,15.43
2023-02-15T12:47:04.560Z,16.60
2023-02-15T12:48:13.132Z,15.93
2023-02-15T12:49:20.519Z,16.53
2023-02-15T12:50:13.520Z,16.23
2023-02-15T12:51:09.213Z,15.73
2023-02-15T12:52:03.402Z,14.70
2023-02-15T12:53:12.732Z,16.20
2023-02-15T12:54:16.630Z,15.23
2023-02-15T12:55:17.663Z,16.03
2023-02-15T12:56:04.044Z,17.13
2023-02-15T12:57:20.806Z,15.23